Beersheba, Israel
Current Conditions -  °F | °C
As of 3:20 AM on Saturday 22 Nov 2014 (Local Time) from LLBG Reporting Station
Broken Clouds Broken Clouds  
Wind Chill: 19°   Ceiling: 4000
Heat Index: 19°   Visibility: 6mi
Dew Point: 13°   Wind: 15mph
Humidity: 68%   Direction: 260°W
Pressure: 29.94"   Gusts: NA
Location:  31.25°N, 34.8°E
Report Text: LLBG 220020Z 26013KT 9999 BKN040 19/13 Q1014 NOSIG
Loading
Personal Weather Stations






























Interactive Weather Map New forecast layout! Learn more

10-Day Weather Forecast

Advertisements
Track Severe Weather on mobile